createdAt,value
2018-08-16T00:00:16.008Z,983.6
2018-08-16T00:01:19.435Z,983.6
2018-08-16T00:02:23.163Z,983.6
2018-08-16T00:03:24.375Z,983.6
2018-08-16T00:04:25.563Z,983.6
2018-08-16T00:05:31.578Z,983.7
2018-08-16T00:06:32.820Z,983.6
2018-08-16T00:07:34.025Z,983.5
2018-08-16T00:08:41.204Z,983.6
2018-08-16T00:09:42.380Z,983.6
2018-08-16T00:10:43.625Z,983.6
2018-08-16T00:11:44.806Z,983.6
2018-08-16T00:12:46.020Z,983.6
2018-08-16T00:13:53.067Z,983.6
2018-08-16T00:14:54.274Z,983.6
2018-08-16T00:15:55.496Z,983.6
2018-08-16T00:16:59.178Z,983.6
2018-08-16T00:18:00.361Z,983.5
2018-08-16T00:19:01.605Z,983.5
2018-08-16T00:20:02.822Z,983.5
2018-08-16T00:21:04.379Z,983.5
2018-08-16T00:22:05.591Z,983.5
2018-08-16T00:23:06.787Z,983.5
2018-08-16T00:24:08.000Z,983.5
2018-08-16T00:25:09.292Z,983.5
2018-08-16T00:26:10.788Z,983.5
2018-08-16T00:27:11.986Z,983.4
2018-08-16T00:28:13.180Z,983.5
2018-08-16T00:29:14.367Z,983.4
2018-08-16T00:30:15.571Z,983.5
2018-08-16T00:31:17.876Z,983.5
2018-08-16T00:32:19.344Z,983.4
2018-08-16T00:33:20.560Z,983.4
2018-08-16T00:34:21.756Z,983.5
2018-08-16T00:35:23.659Z,983.4
2018-08-16T00:36:24.895Z,983.5
2018-08-16T00:37:26.193Z,983.5
2018-08-16T00:38:27.396Z,983.5
2018-08-16T00:39:28.598Z,983.4
2018-08-16T00:40:29.842Z,983.4
2018-08-16T00:41:31.285Z,983.4
2018-08-16T00:42:32.468Z,983.5
2018-08-16T00:43:33.693Z,983.5
2018-08-16T00:44:34.900Z,983.5
2018-08-16T00:45:36.196Z,983.5
2018-08-16T00:46:37.412Z,983.5
2018-08-16T00:47:38.618Z,983.5
2018-08-16T00:48:39.904Z,983.5
2018-08-16T00:49:44.268Z,983.5
2018-08-16T00:50:45.465Z,983.5
2018-08-16T00:51:46.716Z,983.4
2018-08-16T00:52:50.709Z,983.6
2018-08-16T00:53:51.901Z,983.5
2018-08-16T00:54:53.090Z,983.5
2018-08-16T00:55:54.273Z,983.5
2018-08-16T00:56:55.500Z,983.5
2018-08-16T00:57:56.680Z,983.5
2018-08-16T00:58:57.869Z,983.5
2018-08-16T01:00:01.451Z,983.5
2018-08-16T01:01:02.675Z,983.5
2018-08-16T01:02:04.135Z,983.5
2018-08-16T01:03:05.332Z,983.5
2018-08-16T01:04:06.540Z,983.5
2018-08-16T01:05:07.730Z,983.5
2018-08-16T01:06:11.911Z,983.5
2018-08-16T01:07:15.585Z,983.5
2018-08-16T01:08:16.803Z,983.5
2018-08-16T01:09:18.024Z,983.5
2018-08-16T01:10:19.204Z,983.5
2018-08-16T01:11:20.408Z,983.5
2018-08-16T01:12:21.868Z,983.5
2018-08-16T01:13:25.207Z,983.5
2018-08-16T01:14:26.407Z,983.5
2018-08-16T01:15:27.601Z,983.5
2018-08-16T01:16:28.811Z,983.5
2018-08-16T01:17:30.975Z,983.4
2018-08-16T01:18:32.272Z,983.4
2018-08-16T01:19:33.476Z,983.4
2018-08-16T01:20:34.688Z,983.4
2018-08-16T01:21:35.910Z,983.4
2018-08-16T01:22:37.119Z,983.5
2018-08-16T01:23:40.817Z,983.2
2018-08-16T01:24:42.053Z,983.4
2018-08-16T01:25:43.242Z,983.4
2018-08-16T01:26:44.444Z,983.3
2018-08-16T01:27:45.680Z,983.4
2018-08-16T01:28:46.885Z,983.4
2018-08-16T01:29:48.095Z,983.3
2018-08-16T01:30:49.409Z,983.4
2018-08-16T01:31:50.592Z,983.4
2018-08-16T01:32:51.822Z,983.4
2018-08-16T01:33:52.985Z,983.4
2018-08-16T01:34:54.571Z,983.4
2018-08-16T01:35:55.757Z,983.4
2018-08-16T01:36:56.959Z,983.4
2018-08-16T01:37:58.208Z,983.4
2018-08-16T01:38:59.453Z,983.4
2018-08-16T01:40:00.671Z,983.4
2018-08-16T01:41:01.873Z,983.4
2018-08-16T01:42:03.074Z,983.3
2018-08-16T01:43:04.334Z,983.3
2018-08-16T01:44:05.546Z,983.4
2018-08-16T01:45:06.763Z,983.3
2018-08-16T01:46:07.963Z,983.4
2018-08-16T01:47:09.234Z,983.3
2018-08-16T01:48:10.485Z,983.3
2018-08-16T01:49:11.678Z,983.3
2018-08-16T01:50:12.886Z,983.3
2018-08-16T01:51:14.108Z,983.3
2018-08-16T01:52:16.061Z,983.3
2018-08-16T01:53:17.283Z,983.3
2018-08-16T01:54:19.527Z,983.3
2018-08-16T01:55:20.722Z,983.3
2018-08-16T01:56:21.919Z,983.2
2018-08-16T01:57:25.929Z,983.3
2018-08-16T01:58:27.375Z,983.3
2018-08-16T01:59:28.612Z,983.3
2018-08-16T02:00:31.055Z,983.3
2018-08-16T02:01:32.274Z,983.2
2018-08-16T02:02:34.543Z,983.2
2018-08-16T02:03:35.790Z,983.3
2018-08-16T02:04:37.020Z,983.2
2018-08-16T02:05:38.234Z,983.2
2018-08-16T02:06:42.665Z,983.2
2018-08-16T02:07:43.901Z,983.2
2018-08-16T02:08:45.135Z,983.2
2018-08-16T02:09:47.003Z,983.2
2018-08-16T02:10:48.254Z,983.2
2018-08-16T02:11:49.492Z,983.2
2018-08-16T02:12:50.690Z,983.2
2018-08-16T02:13:52.250Z,983.2
2018-08-16T02:14:56.122Z,983.2
2018-08-16T02:15:57.599Z,983.2
2018-08-16T02:16:58.775Z,983.2
2018-08-16T02:17:59.990Z,983.2
2018-08-16T02:19:01.239Z,983.2
2018-08-16T02:20:02.484Z,983.2
2018-08-16T02:21:03.694Z,983.2
2018-08-16T02:22:05.532Z,983.2
2018-08-16T02:23:06.744Z,983.2
2018-08-16T02:24:07.996Z,983.3
2018-08-16T02:25:09.273Z,983.2
2018-08-16T02:26:10.484Z,983.3
2018-08-16T02:27:12.179Z,983.2
2018-08-16T02:28:13.611Z,983.3
2018-08-16T02:29:14.882Z,983.2
2018-08-16T02:30:16.101Z,983.3
2018-08-16T02:31:17.332Z,983.3
2018-08-16T02:32:19.587Z,983.2
2018-08-16T02:33:21.037Z,983.2
2018-08-16T02:34:22.268Z,983.3
2018-08-16T02:35:23.472Z,983.2
2018-08-16T02:36:24.787Z,983.2
2018-08-16T02:37:25.974Z,983.2
2018-08-16T02:38:27.184Z,983.2
2018-08-16T02:39:28.430Z,983.2
2018-08-16T02:40:29.625Z,983.2
2018-08-16T02:41:30.817Z,983.2
2018-08-16T02:42:34.184Z,983.2
2018-08-16T02:43:35.389Z,983.2
2018-08-16T02:44:38.911Z,983.2
2018-08-16T02:45:40.123Z,983.3
2018-08-16T02:46:42.016Z,983.2
2018-08-16T02:47:47.037Z,983.3
2018-08-16T02:48:48.257Z,983.3
2018-08-16T02:49:49.541Z,983.3
2018-08-16T02:50:50.795Z,983.3
2018-08-16T02:51:51.937Z,983.2
2018-08-16T02:52:56.149Z,983.2
2018-08-16T02:53:57.356Z,983.2
2018-08-16T02:54:58.594Z,983.2
2018-08-16T02:55:59.875Z,983
2018-08-16T02:57:01.046Z,983.2
2018-08-16T02:58:02.292Z,983.2
2018-08-16T02:59:03.483Z,983.2
2018-08-16T03:00:04.715Z,983.2
2018-08-16T03:01:06.006Z,983.2
2018-08-16T03:02:07.274Z,983.1
2018-08-16T03:03:08.506Z,983.2
2018-08-16T03:04:09.693Z,983
2018-08-16T03:05:10.968Z,983.2
2018-08-16T03:06:12.199Z,983.1
2018-08-16T03:07:13.356Z,983.2
2018-08-16T03:08:14.533Z,983.2
2018-08-16T03:09:15.735Z,983.1
2018-08-16T03:10:16.996Z,983.2
2018-08-16T03:11:18.220Z,983.1
2018-08-16T03:12:19.439Z,983.1
2018-08-16T03:13:20.687Z,983.1
2018-08-16T03:14:21.893Z,983.1
2018-08-16T03:15:23.439Z,983.1
2018-08-16T03:16:24.635Z,983.1
2018-08-16T03:17:25.828Z,983.1
2018-08-16T03:18:27.062Z,983.1
2018-08-16T03:19:28.276Z,983.1
2018-08-16T03:20:29.538Z,983.1
2018-08-16T03:21:30.735Z,983.1
2018-08-16T03:22:31.936Z,983.1
2018-08-16T03:23:33.181Z,983.1
2018-08-16T03:24:34.369Z,983.1
2018-08-16T03:25:35.614Z,983.1
2018-08-16T03:26:36.815Z,983.1
2018-08-16T03:27:38.079Z,983.2
2018-08-16T03:28:40.871Z,983.1
2018-08-16T03:29:42.061Z,983.1
2018-08-16T03:30:43.476Z,983.1
2018-08-16T03:31:44.731Z,983.1
2018-08-16T03:32:45.956Z,983.1
2018-08-16T03:33:47.171Z,983.1
2018-08-16T03:34:48.404Z,983.1
2018-08-16T03:35:50.269Z,983.1
2018-08-16T03:36:51.476Z,983.1
2018-08-16T03:37:52.659Z,983.1
2018-08-16T03:38:53.870Z,983.1
2018-08-16T03:39:55.061Z,983
2018-08-16T03:41:09.931Z,983.1
2018-08-16T03:42:36.368Z,983
2018-08-16T03:43:37.595Z,983.1
2018-08-16T03:44:39.687Z,983
2018-08-16T03:45:40.892Z,983
2018-08-16T03:46:42.152Z,983
2018-08-16T03:47:43.355Z,983
2018-08-16T03:48:44.525Z,983
2018-08-16T03:49:45.757Z,983
2018-08-16T03:50:46.931Z,983
2018-08-16T03:51:48.178Z,982.9
2018-08-16T03:52:49.379Z,983
2018-08-16T03:53:50.590Z,983
2018-08-16T03:54:51.798Z,982.9
2018-08-16T03:55:52.984Z,983
2018-08-16T03:56:54.216Z,983
2018-08-16T03:57:55.416Z,983
2018-08-16T03:58:56.626Z,983
2018-08-16T03:59:57.848Z,983
2018-08-16T04:00:59.059Z,983
2018-08-16T04:02:00.485Z,983
2018-08-16T04:03:01.714Z,982.9
2018-08-16T04:04:02.964Z,982.9
2018-08-16T04:05:04.211Z,983
2018-08-16T04:06:05.440Z,983
2018-08-16T04:07:06.709Z,983
2018-08-16T04:08:07.913Z,982.9
2018-08-16T04:09:09.115Z,982.7
2018-08-16T04:10:10.403Z,982.9
2018-08-16T04:11:11.668Z,982.9
2018-08-16T04:12:12.953Z,982.9
2018-08-16T04:13:14.183Z,982.8
2018-08-16T04:14:15.413Z,983
2018-08-16T04:15:16.624Z,983
2018-08-16T04:16:20.280Z,983
2018-08-16T04:17:21.816Z,983
2018-08-16T04:18:23.011Z,983
2018-08-16T04:19:24.256Z,983
2018-08-16T04:20:25.450Z,983
2018-08-16T04:21:26.665Z,983.1
2018-08-16T04:22:27.903Z,983
2018-08-16T04:23:29.109Z,983.1
2018-08-16T04:24:30.360Z,983.1
2018-08-16T04:25:31.560Z,983.1
2018-08-16T04:26:32.737Z,983
2018-08-16T04:27:33.988Z,983
2018-08-16T04:28:37.333Z,983.1
2018-08-16T04:29:38.542Z,983
2018-08-16T04:30:39.881Z,982.7
2018-08-16T04:31:41.143Z,983.1
2018-08-16T04:32:42.431Z,983.1
2018-08-16T04:33:45.823Z,983.1
2018-08-16T04:34:47.083Z,983.1
2018-08-16T04:35:48.348Z,983
2018-08-16T04:36:49.543Z,983.1
2018-08-16T04:37:51.283Z,983.1
2018-08-16T04:38:52.521Z,983.1
2018-08-16T04:39:53.745Z,983.1
2018-08-16T04:40:54.956Z,983
2018-08-16T04:41:56.223Z,983.1
2018-08-16T04:42:57.453Z,983.1
2018-08-16T04:43:58.647Z,983.1
2018-08-16T04:44:59.881Z,983.1
2018-08-16T04:46:01.234Z,983.1
2018-08-16T04:47:02.469Z,983
2018-08-16T04:48:04.135Z,982.9
2018-08-16T04:49:05.350Z,983.1
2018-08-16T04:50:06.547Z,983
2018-08-16T04:51:08.612Z,983.1
2018-08-16T04:52:09.879Z,983
2018-08-16T04:53:11.211Z,983
2018-08-16T04:54:12.486Z,983
2018-08-16T04:55:13.724Z,983
2018-08-16T04:56:19.373Z,983
2018-08-16T04:57:20.710Z,982.9
2018-08-16T04:58:21.927Z,982.9
2018-08-16T04:59:23.183Z,983
2018-08-16T05:00:24.400Z,983
2018-08-16T05:01:27.852Z,983
2018-08-16T05:02:29.094Z,983
2018-08-16T05:03:31.258Z,983.1
2018-08-16T05:04:32.511Z,983.1
2018-08-16T05:05:33.747Z,983.1
2018-08-16T05:06:34.945Z,983.1
2018-08-16T05:07:39.644Z,983.1
2018-08-16T05:08:40.907Z,983.2
2018-08-16T05:09:42.152Z,983.3
2018-08-16T05:10:46.412Z,983.2
2018-08-16T05:11:47.655Z,983.2
2018-08-16T05:12:48.908Z,983.2
2018-08-16T05:13:50.281Z,983.3
2018-08-16T05:14:51.512Z,983.2
2018-08-16T05:15:52.775Z,983.3
2018-08-16T05:16:53.994Z,983.3
2018-08-16T05:17:55.234Z,983.4
2018-08-16T05:18:56.894Z,983.4
2018-08-16T05:19:58.267Z,983.4
2018-08-16T05:20:59.618Z,983.4
2018-08-16T05:22:02.422Z,983.4
2018-08-16T05:23:03.754Z,983.4
2018-08-16T05:24:05.113Z,983.5
2018-08-16T05:25:06.466Z,983.5
2018-08-16T05:26:07.783Z,983.2
2018-08-16T05:27:09.161Z,983.2
2018-08-16T05:28:17.494Z,983.6
2018-08-16T05:29:18.836Z,983.7
2018-08-16T05:30:20.048Z,983.7
2018-08-16T05:31:21.371Z,983.8
2018-08-16T05:32:22.627Z,983.7
2018-08-16T05:33:23.835Z,983.7
2018-08-16T05:34:25.105Z,983.7
2018-08-16T05:35:26.392Z,983.8
2018-08-16T05:36:31.766Z,983.7
2018-08-16T05:37:33.045Z,983.8
2018-08-16T05:38:34.300Z,983.8
2018-08-16T05:39:37.491Z,983.9
2018-08-16T05:40:38.731Z,984
2018-08-16T05:41:40.007Z,983.8
2018-08-16T05:42:41.335Z,983.8
2018-08-16T05:43:42.639Z,983.9
2018-08-16T05:44:43.900Z,983.7
2018-08-16T05:45:45.185Z,983.9
2018-08-16T05:46:46.372Z,983.7
2018-08-16T05:48:02.856Z,983.9
2018-08-16T05:49:04.152Z,983.5
2018-08-16T05:50:05.632Z,983.7
2018-08-16T05:51:06.880Z,984.2
2018-08-16T05:52:08.260Z,984
2018-08-16T05:53:09.557Z,983.9
2018-08-16T05:54:13.024Z,984
2018-08-16T05:55:14.342Z,983.5
2018-08-16T05:56:15.664Z,983.9
2018-08-16T05:57:17.555Z,983.8
2018-08-16T05:58:20.721Z,984
2018-08-16T05:59:22.045Z,983.9
2018-08-16T06:00:23.580Z,983.5
2018-08-16T06:01:24.828Z,983.9
2018-08-16T06:02:28.444Z,983.6
2018-08-16T06:03:29.911Z,983.7
2018-08-16T06:04:31.260Z,983.6
2018-08-16T06:05:35.203Z,983.4
2018-08-16T06:06:36.630Z,983.1
2018-08-16T06:07:37.934Z,983.2
2018-08-16T06:08:39.597Z,983.2
2018-08-16T06:09:41.995Z,983.2
2018-08-16T06:10:43.261Z,983.4
2018-08-16T06:11:44.529Z,983.3
2018-08-16T06:12:45.757Z,983.1
2018-08-16T06:13:46.961Z,983.2
2018-08-16T06:14:48.259Z,983.7
2018-08-16T06:15:49.514Z,983.7
2018-08-16T06:16:50.826Z,983.6
2018-08-16T06:17:52.352Z,983.6
2018-08-16T06:18:53.622Z,983.9
2018-08-16T06:19:54.845Z,983.5
2018-08-16T06:20:56.610Z,983.7
2018-08-16T06:22:02.750Z,983.9
2018-08-16T06:23:04.026Z,983.4
2018-08-16T06:24:05.284Z,983.8
2018-08-16T06:25:06.526Z,983.8
2018-08-16T06:26:07.795Z,985.3
2018-08-16T06:27:10.071Z,984.7
2018-08-16T06:28:11.763Z,984.8
2018-08-16T06:29:15.907Z,984.5
2018-08-16T06:30:17.193Z,984.6
2018-08-16T06:31:21.261Z,983.7
2018-08-16T06:32:22.515Z,983.5
2018-08-16T06:33:23.831Z,983.8
2018-08-16T06:34:25.073Z,984.3
2018-08-16T06:35:26.310Z,983.7
2018-08-16T06:36:27.737Z,984.6
2018-08-16T06:37:29.037Z,983.7
2018-08-16T06:38:30.249Z,983.3
2018-08-16T06:39:31.633Z,984.4
2018-08-16T06:40:32.988Z,985.1
2018-08-16T06:41:34.275Z,983.8
2018-08-16T06:42:35.532Z,984.9
2018-08-16T06:43:36.808Z,983.9
2018-08-16T06:44:38.278Z,985.1
2018-08-16T06:45:39.523Z,984.4
2018-08-16T06:46:40.902Z,983.5
2018-08-16T06:47:42.116Z,983.1
2018-08-16T06:48:43.341Z,984
2018-08-16T06:49:47.144Z,983.4
2018-08-16T06:50:48.472Z,983
2018-08-16T06:51:49.972Z,983
2018-08-16T06:52:53.236Z,984.1
2018-08-16T06:53:54.799Z,983.3
2018-08-16T06:54:56.106Z,983
2018-08-16T06:55:57.748Z,982.8
2018-08-16T06:57:01.858Z,982.9
2018-08-16T06:58:05.042Z,982.9
2018-08-16T06:59:06.336Z,983.1
2018-08-16T07:00:09.124Z,983.2
2018-08-16T07:01:10.619Z,983.1
2018-08-16T07:02:12.067Z,983.3
2018-08-16T07:03:13.276Z,983.3
2018-08-16T07:04:14.741Z,983.5
2018-08-16T07:05:21.372Z,983.1
2018-08-16T07:06:22.600Z,983.1
2018-08-16T07:07:29.129Z,983.2
2018-08-16T07:08:30.417Z,983.1
2018-08-16T07:09:34.103Z,983.1
2018-08-16T07:10:35.336Z,983
2018-08-16T07:11:36.608Z,982.9
2018-08-16T07:12:39.807Z,982.8
2018-08-16T07:13:41.056Z,982.9
2018-08-16T07:14:42.278Z,983.6
2018-08-16T07:15:43.601Z,983.5
2018-08-16T07:16:44.818Z,983.2
2018-08-16T07:17:46.469Z,983.6
2018-08-16T07:18:47.971Z,983.1
2018-08-16T07:19:49.149Z,983
2018-08-16T07:20:50.967Z,983
2018-08-16T07:21:54.620Z,983
2018-08-16T07:22:56.647Z,983
2018-08-16T07:23:57.878Z,983.7
2018-08-16T07:24:59.169Z,983.3
2018-08-16T07:26:00.925Z,983.5
2018-08-16T07:27:03.405Z,983.2
2018-08-16T07:28:06.331Z,982.9
2018-08-16T07:29:07.925Z,983.6
2018-08-16T07:30:09.501Z,984.3
2018-08-16T07:31:10.880Z,985.6
2018-08-16T07:32:15.266Z,985.4
2018-08-16T07:33:16.531Z,983.2
2018-08-16T07:34:17.802Z,982.7
2018-08-16T07:35:19.329Z,982.8
2018-08-16T07:36:20.640Z,982.5
2018-08-16T07:37:21.957Z,982.4
2018-08-16T07:38:23.355Z,982.3
2018-08-16T07:39:24.582Z,982.4
2018-08-16T07:40:28.087Z,982.4
2018-08-16T07:41:29.394Z,982.4
2018-08-16T07:42:33.571Z,983.2
2018-08-16T07:43:34.853Z,982.5
2018-08-16T07:44:36.077Z,982.4
2018-08-16T07:45:37.383Z,982.9
2018-08-16T07:46:38.552Z,982.4
2018-08-16T07:47:39.893Z,982.3
2018-08-16T07:48:45.117Z,982.3
2018-08-16T07:49:46.340Z,982.3
2018-08-16T07:50:47.567Z,982.3
2018-08-16T07:51:48.842Z,982.4
2018-08-16T07:52:50.084Z,982.4
2018-08-16T07:53:51.541Z,982.3
2018-08-16T07:54:55.180Z,982.2
2018-08-16T07:55:56.393Z,982.3
2018-08-16T07:56:57.632Z,982.2
2018-08-16T07:57:58.866Z,982.3
2018-08-16T07:59:03.195Z,982.4
2018-08-16T08:00:04.553Z,982.1
2018-08-16T08:01:05.808Z,981.9
2018-08-16T08:02:07.564Z,982
2018-08-16T08:03:08.789Z,982.4
2018-08-16T08:04:10.248Z,982.3
2018-08-16T08:05:12.673Z,982.3
2018-08-16T08:06:14.319Z,982.3
2018-08-16T08:07:15.776Z,982.5
2018-08-16T08:08:17.057Z,982.1
2018-08-16T08:09:18.497Z,982.1
2018-08-16T08:10:22.157Z,982
2018-08-16T08:11:23.531Z,982.3
2018-08-16T08:12:27.316Z,981.9
2018-08-16T08:13:28.639Z,981.9
2018-08-16T08:14:29.949Z,982.4
2018-08-16T08:15:31.398Z,982.6
2018-08-16T08:16:34.170Z,982.4
2018-08-16T08:17:35.416Z,982.3
2018-08-16T08:18:36.677Z,982.4
2018-08-16T08:19:45.537Z,982.5
2018-08-16T08:20:46.893Z,982.1
2018-08-16T08:21:48.637Z,982
2018-08-16T08:22:51.441Z,982
2018-08-16T08:23:52.706Z,981.8
2018-08-16T08:24:54.052Z,981.8
2018-08-16T08:25:58.023Z,982
2018-08-16T08:27:11.656Z,982.3
2018-08-16T08:28:14.908Z,982.4
2018-08-16T08:29:19.086Z,982.2
2018-08-16T08:30:23.159Z,982.1
2018-08-16T08:31:24.642Z,982
2018-08-16T08:32:25.915Z,981.9
2018-08-16T08:33:27.116Z,982.2
2018-08-16T08:34:28.372Z,982.2
2018-08-16T08:35:37.008Z,982.1
2018-08-16T08:36:41.281Z,982
2018-08-16T08:37:42.670Z,982.1
2018-08-16T08:38:43.952Z,981.8
2018-08-16T08:39:45.160Z,982.1
2018-08-16T08:40:47.347Z,981.9
2018-08-16T08:41:49.768Z,982.1
2018-08-16T08:43:08.148Z,982.2
2018-08-16T08:44:09.454Z,981.9
2018-08-16T08:45:15.532Z,981.8
2018-08-16T08:46:16.950Z,982.2
2018-08-16T08:47:20.081Z,982.3
2018-08-16T08:48:24.338Z,982.3
2018-08-16T08:49:25.686Z,982.4
2018-08-16T08:50:27.017Z,982.2
2018-08-16T08:51:28.316Z,982.4
2018-08-16T08:52:29.595Z,982.4
2018-08-16T08:53:30.800Z,982.3
2018-08-16T08:54:32.143Z,982
2018-08-16T08:55:33.389Z,982
2018-08-16T08:56:35.084Z,982
2018-08-16T08:57:36.551Z,981.8
2018-08-16T08:58:39.520Z,982.1
2018-08-16T08:59:45.769Z,982.2
2018-08-16T09:00:50.077Z,982
2018-08-16T09:01:56.427Z,982.4
2018-08-16T09:03:00.232Z,982.2
2018-08-16T09:04:03.135Z,982.3
2018-08-16T09:05:04.403Z,981.8
2018-08-16T09:06:05.670Z,981.9
2018-08-16T09:07:07.053Z,981.9
2018-08-16T09:08:15.475Z,981.9
2018-08-16T09:09:17.128Z,981.9
2018-08-16T09:10:24.118Z,981.9
2018-08-16T09:11:25.435Z,982.1
2018-08-16T09:12:26.745Z,982.1
2018-08-16T09:13:29.519Z,981.7
2018-08-16T09:14:36.147Z,981.8
2018-08-16T09:15:37.479Z,981.6
2018-08-16T09:16:38.797Z,981.4
2018-08-16T09:17:40.254Z,981.5
2018-08-16T09:18:41.582Z,981.7
2018-08-16T09:19:42.923Z,981.6
2018-08-16T09:20:47.026Z,981.8
2018-08-16T09:21:48.251Z,981.5
2018-08-16T09:22:54.152Z,981.6
2018-08-16T09:23:58.387Z,981.8
2018-08-16T09:24:59.752Z,981.6
2018-08-16T09:26:01.008Z,981.3
2018-08-16T09:27:02.359Z,981.9
2018-08-16T09:28:03.925Z,981.8
2018-08-16T09:29:05.247Z,981.7
2018-08-16T09:30:06.468Z,981.6
2018-08-16T09:31:10.547Z,981.7
2018-08-16T09:32:11.977Z,982
2018-08-16T09:33:13.307Z,981.7
2018-08-16T09:34:18.504Z,981.2
2018-08-16T09:35:27.099Z,981.2
2018-08-16T09:36:31.009Z,981.6
2018-08-16T09:37:32.555Z,981.7
2018-08-16T09:38:33.903Z,981.7
2018-08-16T09:39:35.345Z,981.5
2018-08-16T09:40:36.408Z,981.3
2018-08-16T09:41:37.908Z,981.7
2018-08-16T09:42:39.390Z,981.7
2018-08-16T09:43:43.240Z,981.5
2018-08-16T09:44:46.127Z,981.6
2018-08-16T09:45:47.861Z,981.7
2018-08-16T09:46:52.112Z,981.1
2018-08-16T09:47:53.337Z,981.2
2018-08-16T09:48:54.682Z,981.1
2018-08-16T09:49:55.983Z,981.2
2018-08-16T09:50:57.465Z,981.2
2018-08-16T09:51:58.719Z,981.1
2018-08-16T09:53:00.075Z,981.3
2018-08-16T09:54:01.604Z,981.2
2018-08-16T09:55:03.120Z,980.9
2018-08-16T09:56:04.358Z,981.1
2018-08-16T09:57:05.727Z,981.2
2018-08-16T09:58:07.535Z,981.1
2018-08-16T09:59:11.388Z,981.2
2018-08-16T10:00:16.734Z,981.1
2018-08-16T10:01:25.221Z,980.9
2018-08-16T10:02:29.816Z,981.1
2018-08-16T10:03:32.671Z,981.2
2018-08-16T10:04:36.124Z,981
2018-08-16T10:05:37.363Z,981.3
2018-08-16T10:06:41.952Z,981.3
2018-08-16T10:07:43.287Z,981.1
2018-08-16T10:08:44.648Z,981
2018-08-16T10:09:47.328Z,980.9
2018-08-16T10:10:48.764Z,981
2018-08-16T10:11:53.387Z,980.9
2018-08-16T10:12:57.760Z,980.9
2018-08-16T10:14:04.473Z,981.1
2018-08-16T10:15:05.862Z,980.9
2018-08-16T10:16:13.262Z,981
2018-08-16T10:17:15.885Z,980.8
2018-08-16T10:18:18.857Z,980.9
2018-08-16T10:19:26.242Z,981.1
2018-08-16T10:20:28.185Z,981.2
2018-08-16T10:21:32.197Z,981.2
2018-08-16T10:22:33.496Z,980.9
2018-08-16T10:23:36.279Z,980.9
2018-08-16T10:24:37.532Z,980.8
2018-08-16T10:25:40.868Z,980.9
2018-08-16T10:26:42.555Z,980.9
2018-08-16T10:27:46.129Z,981
2018-08-16T10:28:47.947Z,980.9
2018-08-16T10:29:51.662Z,980.9
2018-08-16T10:31:00.164Z,980.8
2018-08-16T10:32:01.666Z,980.3
2018-08-16T10:33:06.402Z,980.7
2018-08-16T10:34:07.684Z,980.8
2018-08-16T10:35:11.724Z,980.7
2018-08-16T10:36:16.303Z,980.9
2018-08-16T10:37:18.197Z,980.9
2018-08-16T10:38:19.426Z,980.7
2018-08-16T10:39:21.654Z,980.8
2018-08-16T10:40:29.130Z,980.7
2018-08-16T10:41:33.294Z,980.8
2018-08-16T10:42:42.108Z,980.8
2018-08-16T10:43:52.658Z,980.4
2018-08-16T10:44:57.647Z,980.6
2018-08-16T10:45:59.283Z,980.7
2018-08-16T10:47:15.422Z,980.7
2018-08-16T10:48:17.641Z,980.8
2018-08-16T10:49:18.969Z,980.8
2018-08-16T10:50:20.736Z,980.6
2018-08-16T10:51:24.824Z,980.5
2018-08-16T10:52:28.846Z,980.8
2018-08-16T10:53:30.242Z,980.5
2018-08-16T10:54:31.522Z,980.6
2018-08-16T10:55:32.832Z,980.6
2018-08-16T10:56:34.016Z,980.6
2018-08-16T10:57:35.311Z,980.4
2018-08-16T10:58:38.741Z,980.5
2018-08-16T10:59:40.539Z,980.5
2018-08-16T11:00:41.804Z,980.4
2018-08-16T11:01:46.315Z,980.4
2018-08-16T11:02:47.675Z,980.4
2018-08-16T11:03:50.570Z,980.4
2018-08-16T11:04:51.836Z,980.5
2018-08-16T11:05:56.753Z,980.6
2018-08-16T11:06:58.234Z,980.6
2018-08-16T11:08:01.364Z,980.6
2018-08-16T11:09:04.935Z,980.4
2018-08-16T11:10:06.310Z,980.4
2018-08-16T11:11:07.686Z,980.4
2018-08-16T11:12:10.745Z,980.3
2018-08-16T11:13:14.890Z,980.2
2018-08-16T11:14:19.050Z,980.5
2018-08-16T11:15:22.568Z,980.6
2018-08-16T11:16:36.345Z,980.3
2018-08-16T11:17:37.600Z,980.4
2018-08-16T11:18:38.949Z,980.4
2018-08-16T11:19:40.635Z,980.4
2018-08-16T11:20:44.057Z,980.4
2018-08-16T11:21:57.929Z,980.2
2018-08-16T11:23:04.679Z,980.4
2018-08-16T11:24:06.107Z,980.3
2018-08-16T11:25:08.829Z,980.3
2018-08-16T11:26:16.330Z,980.1
2018-08-16T11:27:22.760Z,980.1
2018-08-16T11:28:24.993Z,980.2
2018-08-16T11:29:30.273Z,980.3
2018-08-16T11:30:49.746Z,980.3
2018-08-16T11:31:53.608Z,980.4
2018-08-16T11:32:54.904Z,980.2
2018-08-16T11:33:56.180Z,980
2018-08-16T11:35:01.634Z,980.2
2018-08-16T11:36:05.483Z,980.2
2018-08-16T11:37:06.923Z,980.2
2018-08-16T11:38:08.286Z,980.2
2018-08-16T11:39:09.526Z,980.2
2018-08-16T11:40:10.951Z,980
2018-08-16T11:41:12.583Z,980.1
2018-08-16T11:42:13.831Z,980.3
2018-08-16T11:44:31.821Z,980.2
2018-08-16T11:45:40.550Z,980.1
2018-08-16T11:46:41.877Z,980.1
2018-08-16T11:47:46.107Z,980
2018-08-16T11:48:47.327Z,980.1
2018-08-16T11:49:51.924Z,980
2018-08-16T11:50:53.638Z,980
2018-08-16T11:52:03.187Z,980.1
2018-08-16T11:53:04.581Z,980.1
2018-08-16T11:54:08.268Z,980.1
2018-08-16T11:55:31.891Z,980.2
2018-08-16T11:56:33.530Z,980.2
2018-08-16T11:57:34.761Z,980.1
2018-08-16T11:58:36.341Z,980.1
2018-08-16T11:59:37.591Z,980.2
2018-08-16T12:00:38.871Z,980.1
2018-08-16T12:01:45.483Z,980.1
2018-08-16T12:02:49.019Z,980.1
2018-08-16T12:03:53.624Z,980.1
2018-08-16T12:04:58.785Z,980.2
2018-08-16T12:06:00.175Z,980.2
2018-08-16T12:07:01.495Z,980.2
2018-08-16T12:08:02.739Z,980.2
2018-08-16T12:09:04.020Z,980
2018-08-16T12:10:06.102Z,980.1
2018-08-16T12:11:07.334Z,980.1
2018-08-16T12:12:08.634Z,980
2018-08-16T12:13:11.299Z,979.9
2018-08-16T12:14:12.690Z,979.9
2018-08-16T12:15:13.953Z,979.9
2018-08-16T12:16:21.605Z,979.9
2018-08-16T12:17:24.114Z,979.9
2018-08-16T12:18:25.637Z,979.8
2018-08-16T12:19:33.868Z,979.9
2018-08-16T12:20:37.593Z,979.9
2018-08-16T12:21:47.416Z,979.9
2018-08-16T12:22:51.088Z,979.8
2018-08-16T12:23:55.361Z,980
2018-08-16T12:24:56.659Z,980
2018-08-16T12:25:57.894Z,979.9
2018-08-16T12:27:13.573Z,979.9
2018-08-16T12:29:33.226Z,979.7
2018-08-16T12:30:36.267Z,979.7
2018-08-16T12:31:37.577Z,979.7
2018-08-16T12:32:59.561Z,979.7
2018-08-16T12:34:07.433Z,979.7
2018-08-16T12:35:10.393Z,979.8
2018-08-16T12:36:11.836Z,979.7
2018-08-16T12:37:18.537Z,979.7
2018-08-16T12:38:19.770Z,979.7
2018-08-16T12:39:21.300Z,979.8
2018-08-16T12:40:22.522Z,979.8
2018-08-16T12:41:27.796Z,979.7
2018-08-16T12:42:32.339Z,979.8
2018-08-16T12:43:35.238Z,979.7
2018-08-16T12:44:39.083Z,979.6
2018-08-16T12:45:41.403Z,979.6
2018-08-16T12:46:45.089Z,979.5
2018-08-16T12:47:50.655Z,979.5
2018-08-16T12:48:53.987Z,979.6
2018-08-16T12:49:57.752Z,979.5
2018-08-16T12:51:03.737Z,979.5
2018-08-16T12:52:08.657Z,979.5
2018-08-16T12:53:14.832Z,979.5
2018-08-16T12:54:26.532Z,979.6
2018-08-16T12:55:30.583Z,979.6
2018-08-16T12:56:34.145Z,979.6
2018-08-16T12:57:43.456Z,979.4
2018-08-16T12:58:52.548Z,979.4
2018-08-16T12:59:58.604Z,979.3
2018-08-16T13:01:19.832Z,979.4
2018-08-16T13:02:28.667Z,979.5
2018-08-16T13:03:37.268Z,979.4
2018-08-16T13:04:41.124Z,979.3
2018-08-16T13:05:42.401Z,979.3
2018-08-16T13:06:48.353Z,979.4
2018-08-16T13:07:52.587Z,979.5
2018-08-16T13:08:57.171Z,979.3
2018-08-16T13:09:58.417Z,979.3
2018-08-16T13:10:59.687Z,979.5
2018-08-16T13:12:14.516Z,979.4
2018-08-16T13:13:15.768Z,979.5
2018-08-16T13:14:34.299Z,979.3
2018-08-16T13:15:39.820Z,979.3
2018-08-16T13:16:47.453Z,979.4
2018-08-16T13:17:48.838Z,979.4
2018-08-16T13:18:55.122Z,979.4
2018-08-16T13:19:56.424Z,979.2
2018-08-16T13:21:07.482Z,979.2
2018-08-16T13:23:27.848Z,979.3
2018-08-16T13:24:32.169Z,979.3
2018-08-16T13:25:36.294Z,979.2
2018-08-16T13:26:49.595Z,979.4
2018-08-16T13:27:57.401Z,979.4
2018-08-16T13:29:00.758Z,979.3
2018-08-16T13:30:15.467Z,979.2
2018-08-16T13:31:19.677Z,979.4
2018-08-16T13:32:20.842Z,979.2
2018-08-16T13:33:27.852Z,979.1
2018-08-16T13:34:31.550Z,979.4
2018-08-16T13:35:32.927Z,979.3